Time;durP1;ratioP1;P1;durP2;ratioP2;P2;SDS_P1;SDS_P2;PMS_P1;PMS_P2;Temp;Humidity;BMP_temperature;BMP_pressure;BME280_temperature;BME280_humidity;BME280_pressure;Samples;Min_cycle;Max_cycle;Signal;HPM_P1;HPM_P2
2023/04/15 00:03:03;;;;;;;7.60;6.40;;;;;;;11.41;67.51;99216.86;131225;1253;107546;-77
2023/04/15 00:06:09;;;;;;;8.50;6.40;;;;;;;11.37;67.83;99218.33;131122;1253;109389;-76
2023/04/15 00:09:15;;;;;;;8.80;6.40;;;;;;;11.34;68.06;99218.19;131239;1253;107266;-76
2023/04/15 00:12:20;;;;;;;7.90;6.70;;;;;;;11.32;68.08;99215.05;131409;1251;107572;-76
2023/04/15 00:15:26;;;;;;;8.90;5.50;;;;;;;11.32;67.97;99219.36;131558;1250;107543;-76
2023/04/15 00:18:31;;;;;;;7.50;6.00;;;;;;;11.33;67.89;99215.67;131480;1253;107374;-77
2023/04/15 00:21:37;;;;;;;9.60;6.50;;;;;;;11.37;67.98;99215.46;131478;1253;107549;-76
2023/04/15 00:24:43;;;;;;;8.20;6.30;;;;;;;11.41;68.23;99209.75;131318;1251;107199;-76
2023/04/15 00:27:48;;;;;;;7.40;6.30;;;;;;;11.43;68.12;99210.59;131186;1253;107468;-77
2023/04/15 00:30:53;;;;;;;7.90;6.70;;;;;;;11.44;68.02;99209.91;131297;1254;108632;-76
2023/04/15 00:33:59;;;;;;;8.10;6.50;;;;;;;11.43;68.40;99208.91;131483;1253;119941;-76
2023/04/15 00:37:05;;;;;;;9.00;6.60;;;;;;;11.41;68.11;99203.50;131349;1253;106734;-78
2023/04/15 00:40:14;;;;;;;8.50;6.70;;;;;;;11.38;68.50;99203.76;131273;1256;107560;-77
2023/04/15 00:43:20;;;;;;;9.50;6.60;;;;;;;11.36;68.16;99205.69;131598;1251;108564;-77
2023/04/15 00:46:27;;;;;;;8.00;6.70;;;;;;;11.33;68.00;99206.89;131173;1253;107306;-76
2023/04/15 00:49:32;;;;;;;10.20;7.30;;;;;;;11.32;68.43;99206.50;131436;1253;107226;-76
2023/04/15 00:52:38;;;;;;;8.90;7.00;;;;;;;11.29;68.65;99207.20;131289;1252;107602;-77
2023/04/15 00:55:44;;;;;;;9.10;6.20;;;;;;;11.26;68.93;99207.80;131402;1253;109416;-77
2023/04/15 00:58:49;;;;;;;8.00;5.80;;;;;;;11.23;68.79;99208.64;131180;1254;107206;-76
2023/04/15 01:01:56;;;;;;;8.30;6.20;;;;;;;11.26;68.71;99208.17;131347;1254;106717;-77
2023/04/15 01:05:01;;;;;;;8.40;6.70;;;;;;;11.29;68.96;99210.19;131473;1253;107627;-77
2023/04/15 01:08:07;;;;;;;8.30;6.70;;;;;;;11.33;69.09;99211.11;131542;1252;107544;-76
2023/04/15 01:11:14;;;;;;;8.00;6.60;;;;;;;11.35;68.92;99208.92;131271;1253;107678;-78
2023/04/15 01:14:19;;;;;;;8.40;6.90;;;;;;;11.35;69.21;99205.44;131282;1253;107481;-77
2023/04/15 01:17:25;;;;;;;8.80;7.10;;;;;;;11.34;68.95;99208.98;131011;1250;107575;-77
2023/04/15 01:20:31;;;;;;;8.00;6.60;;;;;;;11.30;69.34;99206.44;131566;1250;107537;-77
2023/04/15 01:23:39;;;;;;;8.00;7.10;;;;;;;11.26;69.30;99210.60;131309;1248;107577;-77
2023/04/15 01:26:47;;;;;;;10.20;7.40;;;;;;;11.25;69.39;99210.22;131231;1253;107450;-77
2023/04/15 01:29:53;;;;;;;8.50;7.00;;;;;;;11.21;69.77;99208.73;131141;1250;107303;-77
2023/04/15 01:32:58;;;;;;;8.60;6.70;;;;;;;11.14;69.62;99211.79;131066;1252;107499;-76
2023/04/15 01:36:05;;;;;;;7.50;6.00;;;;;;;11.12;69.76;99213.64;131231;1254;108640;-78
2023/04/15 01:39:11;;;;;;;8.00;6.70;;;;;;;11.13;70.07;99210.53;131201;1253;107445;-77
2023/04/15 01:42:16;;;;;;;9.50;7.10;;;;;;;11.16;70.29;99211.64;131184;1251;109253;-76
2023/04/15 01:45:22;;;;;;;9.30;6.90;;;;;;;11.18;70.41;99210.09;131185;1256;106014;-78
2023/04/15 01:48:27;;;;;;;7.60;6.60;;;;;;;11.19;70.18;99214.29;131220;1253;108541;-77
2023/04/15 01:51:33;;;;;;;10.10;8.30;;;;;;;11.18;70.79;99216.52;131210;1253;107376;-77
2023/04/15 01:54:38;;;;;;;10.10;7.80;;;;;;;11.14;70.79;99211.70;131238;1254;107620;-77
2023/04/15 01:57:44;;;;;;;11.10;8.20;;;;;;;11.10;70.65;99210.20;131376;1253;107494;-77
2023/04/15 02:00:49;;;;;;;15.00;9.90;;;;;;;11.08;70.93;99212.98;131164;1251;106940;-77
2023/04/15 02:03:56;;;;;;;16.60;10.50;;;;;;;11.02;71.59;99212.95;131165;1253;107477;-76
2023/04/15 02:07:01;;;;;;;16.90;10.60;;;;;;;10.96;71.74;99218.38;131331;1253;107511;-77
2023/04/15 02:10:09;;;;;;;16.70;11.10;;;;;;;10.95;71.59;99215.08;131296;1253;107468;-76
2023/04/15 02:13:15;;;;;;;14.90;11.20;;;;;;;10.98;71.96;99216.14;131254;1252;106415;-77
2023/04/15 02:16:21;;;;;;;12.90;9.50;;;;;;;11.02;72.02;99219.89;131176;1253;107928;-76
2023/04/15 02:19:27;;;;;;;12.40;9.40;;;;;;;11.03;72.11;99214.98;131209;1254;108692;-77
2023/04/15 02:22:32;;;;;;;11.50;8.60;;;;;;;11.01;72.50;99219.23;131315;1253;107604;-77
2023/04/15 02:25:38;;;;;;;11.70;9.10;;;;;;;10.98;72.50;99220.89;131217;1253;107470;-76
2023/04/15 02:28:45;;;;;;;12.60;9.00;;;;;;;10.93;72.72;99227.31;131189;1251;107426;-77
2023/04/15 02:31:53;;;;;;;10.60;8.10;;;;;;;10.86;73.38;99226.38;131322;1253;107321;-77
2023/04/15 02:35:04;;;;;;;11.20;9.40;;;;;;;10.82;73.53;99224.70;131160;1253;107575;-77
2023/04/15 02:38:10;;;;;;;11.00;8.90;;;;;;;10.81;73.76;99224.77;131217;1253;107924;-77
2023/04/15 02:41:16;;;;;;;10.50;8.80;;;;;;;10.80;73.71;99219.92;131193;1254;107231;-78
2023/04/15 02:44:24;;;;;;;10.60;8.60;;;;;;;10.80;73.84;99218.55;131198;1250;107465;-77
2023/04/15 02:47:30;;;;;;;10.90;9.10;;;;;;;10.78;74.29;99223.17;131006;1254;107832;-77
2023/04/15 02:50:38;;;;;;;11.80;9.20;;;;;;;10.77;73.97;99222.78;131088;1256;107564;-78
2023/04/15 02:53:43;;;;;;;11.00;8.50;;;;;;;10.74;74.04;99218.73;131403;1251;107529;-77
2023/04/15 02:56:49;;;;;;;10.20;8.70;;;;;;;10.73;74.24;99217.94;131023;1257;108148;-78
2023/04/15 02:59:54;;;;;;;11.20;8.80;;;;;;;10.74;74.59;99218.04;131062;1256;107492;-76
2023/04/15 03:03:04;;;;;;;11.50;9.40;;;;;;;10.75;74.49;99221.06;131163;1247;107975;-78
2023/04/15 03:06:09;;;;;;;11.40;9.80;;;;;;;10.77;74.66;99221.89;131102;1253;107507;-78
2023/04/15 03:09:15;;;;;;;10.70;9.30;;;;;;;10.76;74.46;99221.63;131293;1253;107481;-78
2023/04/15 03:12:21;;;;;;;12.00;9.90;;;;;;;10.74;74.80;99221.13;131021;1256;107493;-79
2023/04/15 03:15:30;;;;;;;12.00;9.40;;;;;;;10.72;74.77;99225.45;131400;1253;107343;-78
2023/04/15 03:18:36;;;;;;;11.70;9.10;;;;;;;10.68;74.90;99222.92;131105;1257;106534;-79
2023/04/15 03:21:42;;;;;;;11.30;8.00;;;;;;;10.66;74.88;99228.24;130999;1251;107445;-76
2023/04/15 03:24:47;;;;;;;11.30;9.00;;;;;;;10.66;74.94;99228.50;131176;1251;107283;-76
2023/04/15 03:27:53;;;;;;;11.20;9.40;;;;;;;10.68;75.13;99228.80;131283;1253;107230;-75
2023/04/15 03:30:58;;;;;;;13.60;10.50;;;;;;;10.71;75.29;99229.92;132031;1252;107551;-78
2023/04/15 03:34:04;;;;;;;11.90;9.50;;;;;;;10.69;75.17;99232.33;131371;1253;107441;-78
2023/04/15 03:37:09;;;;;;;13.80;10.70;;;;;;;10.68;75.73;99231.73;131330;1250;107526;-78
2023/04/15 03:40:15;;;;;;;14.70;11.30;;;;;;;10.64;75.52;99234.62;131280;1253;107527;-78
2023/04/15 03:43:21;;;;;;;14.80;10.00;;;;;;;10.60;75.72;99236.16;131284;1253;107520;-78
2023/04/15 03:46:26;;;;;;;12.70;9.20;;;;;;;10.56;75.70;99228.98;131402;1251;106679;-76
2023/04/15 03:49:32;;;;;;;19.20;11.20;;;;;;;10.58;75.75;99230.27;131250;1253;107512;-77
2023/04/15 03:52:37;;;;;;;16.50;10.90;;;;;;;10.63;75.91;99231.17;131331;1248;107304;-77
2023/04/15 03:55:43;;;;;;;15.10;10.20;;;;;;;10.68;75.94;99235.23;131198;1253;107487;-77
2023/04/15 03:58:49;;;;;;;12.20;9.00;;;;;;;10.70;75.84;99231.98;131150;1253;107326;-78
2023/04/15 04:01:54;;;;;;;14.30;9.70;;;;;;;10.70;75.85;99235.88;131300;1251;107273;-77
2023/04/15 04:05:00;;;;;;;13.70;9.20;;;;;;;10.68;76.15;99235.80;131390;1253;107512;-77
2023/04/15 04:08:06;;;;;;;11.40;8.00;;;;;;;10.67;76.21;99234.50;131513;1253;105774;-77
2023/04/15 04:11:11;;;;;;;13.20;9.70;;;;;;;10.67;76.02;99234.97;131512;1253;107549;-78
2023/04/15 04:14:17;;;;;;;17.90;11.70;;;;;;;10.69;76.38;99235.79;131495;1251;108701;-77
2023/04/15 04:17:22;;;;;;;22.60;13.90;;;;;;;10.72;76.04;99238.70;131436;1253;108322;-76
2023/04/15 04:20:28;;;;;;;25.20;14.90;;;;;;;10.73;76.43;99243.52;131349;1253;106907;-77
2023/04/15 04:23:34;;;;;;;20.00;12.50;;;;;;;10.71;76.61;99242.58;131228;1253;107536;-77
2023/04/15 04:26:40;;;;;;;15.90;11.20;;;;;;;10.67;76.62;99243.02;131220;1248;108083;-77
2023/04/15 04:29:46;;;;;;;16.70;10.10;;;;;;;10.64;76.89;99246.40;131141;1251;105936;-78
2023/04/15 04:32:52;;;;;;;11.40;7.50;;;;;;;10.62;76.96;99245.55;131389;1253;108111;-77
2023/04/15 04:35:57;;;;;;;13.60;9.10;;;;;;;10.61;76.93;99248.09;131263;1254;108678;-77
2023/04/15 04:39:03;;;;;;;15.40;9.50;;;;;;;10.63;77.04;99250.20;131299;1253;107529;-77
2023/04/15 04:42:08;;;;;;;14.10;9.30;;;;;;;10.66;76.98;99253.30;131239;1253;108708;-77
2023/04/15 04:45:14;;;;;;;17.80;10.20;;;;;;;10.68;77.07;99249.00;131327;1254;107542;-77
2023/04/15 04:48:19;;;;;;;25.60;12.50;;;;;;;10.68;77.27;99252.17;131179;1249;107561;-78
2023/04/15 04:51:25;;;;;;;21.80;10.40;;;;;;;10.67;77.37;99252.27;131222;1254;107473;-77
2023/04/15 04:54:30;;;;;;;13.50;8.20;;;;;;;10.68;77.58;99251.07;131375;1261;106410;-77
2023/04/15 04:57:36;;;;;;;17.10;9.90;;;;;;;10.71;77.87;99250.95;131388;1253;107503;-77
2023/04/15 05:00:43;;;;;;;14.90;8.70;;;;;;;10.76;77.43;99246.20;131200;1251;107482;-77
2023/04/15 05:03:48;;;;;;;13.40;9.10;;;;;;;10.81;77.78;99249.16;131269;1253;107580;-78
2023/04/15 05:06:54;;;;;;;12.40;8.40;;;;;;;10.86;77.86;99249.12;131284;1253;107350;-78
2023/04/15 05:09:59;;;;;;;11.60;8.70;;;;;;;10.88;77.56;99253.14;131208;1253;107543;-77
2023/04/15 05:13:05;;;;;;;11.20;7.80;;;;;;;10.87;77.47;99255.25;131228;1253;107434;-77
2023/04/15 05:16:11;;;;;;;11.20;7.40;;;;;;;10.86;77.73;99257.83;131301;1249;107369;-77
2023/04/15 05:19:16;;;;;;;8.90;7.60;;;;;;;10.90;77.55;99257.20;131389;1253;107689;-78
2023/04/15 05:22:24;;;;;;;10.10;7.40;;;;;;;10.95;77.53;99257.35;131247;1253;106230;-76
2023/04/15 05:25:29;;;;;;;9.30;7.20;;;;;;;10.99;77.58;99258.13;131408;1251;107424;-77
2023/04/15 05:28:35;;;;;;;9.00;7.50;;;;;;;11.02;77.89;99254.39;131233;1249;106689;-77
2023/04/15 05:31:40;;;;;;;9.60;6.90;;;;;;;11.05;77.86;99253.89;131287;1261;107642;-77
2023/04/15 05:34:46;;;;;;;12.70;9.00;;;;;;;11.06;77.65;99253.22;131219;1253;107499;-78
2023/04/15 05:37:51;;;;;;;10.70;7.60;;;;;;;11.05;77.71;99258.46;131189;1254;108632;-77
2023/04/15 05:40:57;;;;;;;9.40;7.10;;;;;;;11.03;77.93;99265.46;131361;1253;109300;-77
2023/04/15 05:44:03;;;;;;;12.30;8.50;;;;;;;11.03;78.03;99264.95;131268;1253;107562;-78
2023/04/15 05:47:09;;;;;;;10.40;8.60;;;;;;;11.05;78.11;99265.28;131248;1253;107349;-77
2023/04/15 05:50:15;;;;;;;9.20;7.40;;;;;;;11.07;78.15;99265.27;131378;1253;107519;-77
2023/04/15 05:53:20;;;;;;;10.90;8.80;;;;;;;11.07;78.11;99269.63;131233;1253;107517;-77
2023/04/15 05:56:26;;;;;;;12.00;9.10;;;;;;;11.10;78.15;99267.34;131137;1251;108061;-76
2023/04/15 05:59:32;;;;;;;12.30;9.40;;;;;;;11.09;78.34;99269.25;131184;1254;108103;-77
2023/04/15 06:02:37;;;;;;;10.80;8.50;;;;;;;11.07;78.30;99274.64;131159;1253;107526;-76
2023/04/15 06:05:43;;;;;;;11.80;8.70;;;;;;;11.09;78.41;99276.55;131138;1262;107157;-75
2023/04/15 06:08:49;;;;;;;12.30;8.80;;;;;;;11.13;78.71;99278.96;131265;1253;107369;-75
2023/04/15 08:55:25;;;;;;;8.00;6.60;;;;;;;12.19;80.53;99326.52;131534;1253;109004;-74
2023/04/15 08:58:31;;;;;;;9.60;7.10;;;;;;;12.22;80.47;99326.75;131431;1254;107491;-75
2023/04/15 09:01:37;;;;;;;8.10;6.70;;;;;;;12.22;80.37;99328.33;131275;1253;105692;-75
2023/04/15 09:04:42;;;;;;;7.90;6.40;;;;;;;12.22;80.43;99331.04;131433;1253;107435;-76
2023/04/15 09:07:48;;;;;;;10.50;7.50;;;;;;;12.16;80.45;99334.30;131327;1253;107457;-75
2023/04/15 09:10:55;;;;;;;8.80;6.60;;;;;;;12.12;80.61;99332.89;131333;1261;107521;-75
2023/04/15 09:14:00;;;;;;;12.40;7.50;;;;;;;12.12;80.62;99337.73;131410;1254;107370;-75
2023/04/15 09:17:10;;;;;;;9.40;7.00;;;;;;;12.13;80.52;99336.95;131247;1253;107871;-75
2023/04/15 09:20:17;;;;;;;10.20;7.10;;;;;;;12.17;80.68;99332.39;131210;1261;107561;-77
2023/04/15 09:23:23;;;;;;;10.40;7.50;;;;;;;12.22;80.70;99326.69;131429;1251;108685;-76
2023/04/15 09:26:37;;;;;;;9.00;7.10;;;;;;;12.34;80.65;99332.88;131478;1253;107282;-74
2023/04/15 09:29:43;;;;;;;12.10;8.10;;;;;;;12.39;80.43;99334.09;131321;1254;107712;-75
2023/04/15 09:32:53;;;;;;;9.00;6.70;;;;;;;12.36;80.38;99331.38;131156;1255;105914;-75
2023/04/15 09:36:01;;;;;;;8.00;5.50;;;;;;;12.32;80.38;99328.38;131301;1250;107416;-74
2023/04/15 09:39:06;;;;;;;5.90;5.10;;;;;;;12.27;80.55;99323.48;131238;1253;107262;-75
2023/04/15 09:42:12;;;;;;;6.50;5.50;;;;;;;12.26;80.64;99331.67;131208;1251;107236;-75
2023/04/15 09:45:17;;;;;;;9.90;7.20;;;;;;;12.33;80.90;99343.54;131218;1251;107183;-75
2023/04/15 09:48:27;;;;;;;8.10;6.90;;;;;;;12.44;81.02;99346.84;131096;1263;108609;-75
2023/04/15 09:51:36;;;;;;;9.00;6.70;;;;;;;12.50;80.96;99353.41;131337;1254;107307;-75
2023/04/15 09:54:44;;;;;;;12.20;8.70;;;;;;;12.57;80.78;99356.09;131230;1254;107578;-76
2023/04/15 09:57:50;;;;;;;9.10;7.10;;;;;;;12.57;80.80;99360.13;131123;1257;107555;-75
2023/04/15 10:00:56;;;;;;;7.10;5.70;;;;;;;12.61;80.76;99364.23;131211;1254;106515;-75
2023/04/15 10:04:04;;;;;;;9.90;6.90;;;;;;;12.68;80.86;99368.04;131187;1254;107243;-75
2023/04/15 10:07:12;;;;;;;10.50;6.90;;;;;;;12.72;80.65;99366.13;131246;1258;107678;-75
2023/04/15 10:10:18;;;;;;;10.90;7.90;;;;;;;12.77;80.74;99368.63;131140;1254;105697;-75
2023/04/15 10:13:25;;;;;;;21.80;13.40;;;;;;;12.83;80.59;99366.13;131198;1251;107545;-76
2023/04/15 10:16:36;;;;;;;22.20;12.50;;;;;;;12.88;80.72;99363.96;131243;1254;107569;-78
2023/04/15 10:19:42;;;;;;;13.30;8.70;;;;;;;12.96;80.74;99364.13;131326;1248;107279;-75
2023/04/15 10:22:48;;;;;;;14.00;8.70;;;;;;;13.02;80.34;99362.41;131411;1251;107644;-73
2023/04/15 10:25:54;;;;;;;12.30;7.60;;;;;;;13.04;80.56;99364.58;131353;1255;107546;-75
2023/04/15 10:29:01;;;;;;;14.10;8.30;;;;;;;13.11;80.78;99365.23;131051;1254;107865;-75
2023/04/15 10:32:07;;;;;;;10.90;6.70;;;;;;;13.21;80.77;99369.27;131267;1249;107567;-75
2023/04/15 10:35:13;;;;;;;10.20;7.00;;;;;;;13.30;80.94;99369.63;131190;1254;107562;-76
2023/04/15 10:38:36;;;;;;;30.80;14.00;;;;;;;13.39;80.67;99373.99;131360;1255;107972;-76
2023/04/15 10:41:41;;;;;;;43.50;17.80;;;;;;;13.47;80.53;99373.43;131327;1254;107967;-75
2023/04/15 10:44:51;;;;;;;32.90;16.10;;;;;;;13.51;80.36;99369.80;131366;1253;108677;-76
2023/04/15 10:48:01;;;;;;;26.10;13.30;;;;;;;13.50;80.31;99369.83;131504;1248;108367;-74
2023/04/15 10:51:08;;;;;;;11.90;9.40;;;;;;;13.44;80.19;99367.60;131414;1254;107966;-74
2023/04/15 10:54:31;;;;;;;11.40;7.80;;;;;;;13.37;80.26;99373.58;131299;1253;108219;-75
2023/04/15 10:57:41;;;;;;;14.50;8.50;;;;;;;13.42;80.51;99371.55;131284;1255;107516;-75
2023/04/15 11:00:52;;;;;;;8.30;6.40;;;;;;;13.58;80.59;99373.25;131354;1253;106752;-75
2023/04/15 11:03:57;;;;;;;9.80;6.90;;;;;;;13.77;80.36;99372.98;131375;1251;107553;-76
2023/04/15 11:07:08;;;;;;;7.60;6.40;;;;;;;13.94;80.53;99373.50;131238;1254;107509;-75
2023/04/15 11:10:52;;;;;;;8.30;6.80;;;;;;;14.08;79.98;99374.20;131282;1264;107347;-76
2023/04/15 11:13:58;;;;;;;7.30;6.00;;;;;;;14.13;79.91;99374.31;131403;1253;105792;-75
2023/04/15 11:17:04;;;;;;;8.10;6.00;;;;;;;14.12;79.81;99381.00;131434;1254;107549;-75
2023/04/15 11:20:14;;;;;;;6.80;5.00;;;;;;;13.97;79.05;99380.32;131343;1253;107354;-75
2023/04/15 11:23:27;;;;;;;8.80;6.50;;;;;;;13.87;79.49;99382.41;131281;1256;107565;-77
2023/04/15 11:26:33;;;;;;;8.70;6.50;;;;;;;13.93;79.67;99380.06;131426;1255;107505;-76
2023/04/15 11:29:38;;;;;;;7.80;6.10;;;;;;;14.02;79.73;99379.83;131309;1254;107533;-76
2023/04/15 11:32:44;;;;;;;9.60;6.60;;;;;;;14.14;79.61;99384.27;131340;1248;107552;-76
2023/04/15 11:35:50;;;;;;;8.50;6.90;;;;;;;14.33;79.79;99391.19;131205;1248;107528;-76
2023/04/15 11:38:57;;;;;;;7.20;5.80;;;;;;;14.56;79.73;99391.52;131109;1254;107583;-76
2023/04/15 11:42:03;;;;;;;7.60;5.60;;;;;;;14.76;79.31;99390.45;131358;1253;107472;-76
2023/04/15 11:45:13;;;;;;;6.40;5.50;;;;;;;14.95;78.47;99388.39;131331;1263;107375;-76
2023/04/15 11:48:19;;;;;;;6.00;5.00;;;;;;;15.16;79.02;99388.70;131325;1255;107433;-77
2023/04/15 11:51:24;;;;;;;5.60;4.60;;;;;;;15.35;78.61;99387.42;131178;1251;107227;-76
2023/04/15 11:54:30;;;;;;;5.80;4.60;;;;;;;15.45;77.93;99391.45;131259;1251;108677;-76
2023/04/15 11:57:36;;;;;;;5.90;4.10;;;;;;;15.47;77.17;99394.42;131346;1248;107578;-76
2023/04/15 12:00:46;;;;;;;5.80;4.80;;;;;;;15.45;77.23;99393.27;131370;1253;108015;-77
2023/04/15 12:03:52;;;;;;;6.60;4.70;;;;;;;15.47;77.43;99397.20;131329;1252;107566;-76
2023/04/15 12:07:06;;;;;;;5.50;4.70;;;;;;;15.48;77.40;99400.88;131511;1254;106556;-78
2023/04/15 12:10:12;;;;;;;5.70;4.50;;;;;;;15.46;76.65;99405.80;131405;1254;107336;-78
2023/04/15 12:13:17;;;;;;;7.10;5.30;;;;;;;15.42;76.64;99406.13;131015;1253;108649;-78
2023/04/15 12:16:24;;;;;;;7.20;5.50;;;;;;;15.36;76.90;99407.92;131315;1248;108654;-74
2023/04/15 12:19:31;;;;;;;10.90;5.90;;;;;;;15.35;76.71;99412.27;131195;1251;107724;-76
2023/04/15 12:22:39;;;;;;;8.10;5.30;;;;;;;15.25;76.44;99411.23;131154;1251;107501;-76
2023/04/15 12:25:51;;;;;;;7.20;5.00;;;;;;;15.23;76.28;99415.33;131216;1254;107567;-75
2023/04/15 12:29:00;;;;;;;7.40;4.80;;;;;;;15.24;76.10;99415.38;131218;1254;107369;-78
2023/04/15 12:32:11;;;;;;;9.10;5.90;;;;;;;15.19;76.09;99412.46;131071;1253;211916;-76
2023/04/15 12:35:18;;;;;;;5.90;4.30;;;;;;;15.14;75.93;99416.63;131217;1251;106882;-77
2023/04/15 12:38:23;;;;;;;5.90;3.90;;;;;;;15.04;75.98;99418.51;131309;1248;107226;-76
2023/04/15 12:41:29;;;;;;;7.10;4.40;;;;;;;14.97;75.96;99417.61;131218;1252;108787;-76
2023/04/15 12:44:35;;;;;;;4.90;3.60;;;;;;;14.98;75.77;99423.03;131474;1254;107206;-76
2023/04/15 12:47:41;;;;;;;4.10;3.50;;;;;;;15.00;75.53;99430.02;131382;1248;107747;-76
2023/04/15 12:50:46;;;;;;;7.00;4.10;;;;;;;15.06;75.48;99425.61;131372;1251;107359;-77
2023/04/15 12:53:52;;;;;;;4.30;3.50;;;;;;;15.14;74.70;99424.81;131138;1251;107395;-76
2023/04/15 12:56:58;;;;;;;7.00;4.60;;;;;;;15.25;74.90;99425.41;131163;1253;107592;-77
2023/04/15 13:00:06;;;;;;;7.50;5.50;;;;;;;15.39;74.67;99424.44;131173;1252;107508;-75
2023/04/15 13:03:12;;;;;;;5.70;3.70;;;;;;;15.43;74.15;99425.61;131171;1261;107219;-75
2023/04/15 13:06:18;;;;;;;5.80;4.00;;;;;;;15.49;73.63;99426.69;131252;1253;107438;-76
2023/04/15 13:09:23;;;;;;;5.20;3.90;;;;;;;15.55;73.63;99431.16;131203;1254;107243;-76
2023/04/15 13:12:29;;;;;;;5.50;4.20;;;;;;;15.59;73.30;99428.85;131313;1254;107606;-76
2023/04/15 13:15:35;;;;;;;6.40;4.30;;;;;;;15.63;73.10;99430.80;131344;1254;107395;-76
2023/04/15 13:18:41;;;;;;;8.40;4.70;;;;;;;15.63;73.17;99432.48;131285;1254;107218;-76
2023/04/15 13:21:47;;;;;;;8.30;5.30;;;;;;;15.64;73.26;99435.84;131428;1252;107480;-76
2023/04/15 13:24:52;;;;;;;6.00;3.90;;;;;;;15.64;73.07;99435.26;131185;1253;108577;-75
2023/04/15 13:27:58;;;;;;;5.80;3.80;;;;;;;15.64;72.82;99444.08;131196;1254;107546;-75
2023/04/15 13:31:03;;;;;;;6.40;4.60;;;;;;;15.61;72.55;99444.95;131202;1248;107540;-76
2023/04/15 13:34:09;;;;;;;5.80;4.30;;;;;;;15.58;72.28;99455.36;131235;1251;107293;-75
2023/04/15 13:37:14;;;;;;;5.50;3.80;;;;;;;15.55;72.12;99455.36;131341;1253;107597;-75
2023/04/15 13:40:21;;;;;;;5.70;3.80;;;;;;;15.49;71.88;99454.44;131148;1253;107489;-75
2023/04/15 13:43:27;;;;;;;3.80;2.90;;;;;;;15.40;71.86;99458.89;131099;1254;107532;-76
2023/04/15 13:46:32;;;;;;;4.70;3.60;;;;;;;15.28;72.01;99460.98;131159;1263;105816;-76
2023/04/15 13:49:38;;;;;;;4.20;3.50;;;;;;;15.23;72.06;99460.84;131145;1251;107232;-76
2023/04/15 13:52:43;;;;;;;3.90;3.10;;;;;;;15.23;71.89;99460.60;131292;1253;107590;-76
2023/04/15 13:55:48;;;;;;;6.00;3.70;;;;;;;15.26;71.65;99461.39;131357;1259;107562;-75
2023/04/15 13:58:57;;;;;;;8.10;7.20;;;;;;;15.27;70.86;99459.36;131497;1251;107507;-75
2023/04/15 14:02:03;;;;;;;4.30;3.00;;;;;;;15.20;70.73;99458.29;131284;1253;106787;-76
2023/04/15 14:05:10;;;;;;;4.70;2.90;;;;;;;15.17;70.82;99461.04;131334;1254;107509;-75
2023/04/15 14:08:16;;;;;;;5.50;3.20;;;;;;;15.18;70.46;99462.89;131385;1254;108738;-76
2023/04/15 14:11:21;;;;;;;7.20;3.20;;;;;;;15.14;70.44;99463.66;131400;1248;106003;-75
2023/04/15 14:14:26;;;;;;;3.80;2.40;;;;;;;15.14;70.13;99465.08;131228;1251;107380;-75
2023/04/15 14:17:32;;;;;;;3.20;2.00;;;;;;;15.11;69.44;99461.97;131238;1253;107652;-76
2023/04/15 14:20:38;;;;;;;2.40;1.40;;;;;;;15.06;69.38;99460.00;131238;1259;107554;-75
2023/04/15 14:23:44;;;;;;;1.80;1.10;;;;;;;15.02;68.81;99464.95;131197;1253;108625;-75
2023/04/15 14:26:49;;;;;;;2.20;1.30;;;;;;;14.99;68.72;99466.02;131282;1259;107533;-76
2023/04/15 14:29:56;;;;;;;1.80;1.40;;;;;;;14.97;68.69;99464.40;131216;1253;107521;-76
2023/04/15 14:33:04;;;;;;;1.90;1.50;;;;;;;14.93;68.56;99461.86;131205;1252;107431;-76
2023/04/15 14:36:10;;;;;;;2.00;1.70;;;;;;;14.89;68.41;99463.63;131212;1264;106785;-76
2023/04/15 14:39:16;;;;;;;2.20;1.80;;;;;;;14.86;68.60;99466.67;131241;1253;107476;-76
2023/04/15 14:42:22;;;;;;;2.60;1.60;;;;;;;14.78;68.27;99470.10;131177;1250;107435;-76
2023/04/15 14:45:27;;;;;;;1.60;1.30;;;;;;;14.69;68.52;99470.93;131208;1251;107540;-76
2023/04/15 14:48:34;;;;;;;1.90;1.20;;;;;;;14.65;68.31;99474.96;131454;1253;109052;-75
2023/04/15 14:51:40;;;;;;;2.30;1.40;;;;;;;14.62;68.04;99475.36;131237;1250;107508;-75
2023/04/15 14:54:45;;;;;;;1.70;1.40;;;;;;;14.59;67.95;99470.97;131246;1253;107488;-75
2023/04/15 14:57:51;;;;;;;3.10;1.90;;;;;;;14.51;67.38;99472.23;131494;1250;108102;-75
2023/04/15 15:01:03;;;;;;;3.20;2.00;;;;;;;14.46;67.94;99476.16;131181;1254;108032;-76
2023/04/15 15:04:09;;;;;;;5.50;3.90;;;;;;;14.52;67.81;99478.13;131281;1253;106661;-75
2023/04/15 15:07:15;;;;;;;2.90;2.20;;;;;;;14.66;67.71;99483.68;131191;1252;107438;-76
2023/04/15 15:10:20;;;;;;;3.10;2.10;;;;;;;14.80;67.17;99487.18;131281;1264;107569;-74
2023/04/15 15:13:27;;;;;;;3.30;2.20;;;;;;;14.91;67.33;99492.89;131249;1253;107000;-75
2023/04/15 15:16:33;;;;;;;2.80;1.80;;;;;;;14.98;67.07;99497.46;131290;1253;106388;-76
2023/04/15 15:19:38;;;;;;;3.80;2.30;;;;;;;14.97;66.84;99505.10;131449;1251;107570;-76
2023/04/15 15:22:44;;;;;;;3.00;1.70;;;;;;;14.93;66.77;99513.77;131267;1254;107413;-77
2023/04/15 15:25:49;;;;;;;2.90;2.30;;;;;;;14.86;66.76;99519.94;131288;1253;107494;-77
2023/04/15 15:28:55;;;;;;;3.20;2.30;;;;;;;14.77;66.46;99522.69;131234;1253;107524;-77
2023/04/15 15:32:00;;;;;;;6.70;4.90;;;;;;;14.70;66.70;99514.61;131356;1253;107409;-74
2023/04/15 15:35:06;;;;;;;4.30;3.10;;;;;;;14.68;66.62;99514.35;131207;1248;107522;-75
2023/04/15 15:38:15;;;;;;;5.20;3.40;;;;;;;14.61;66.53;99518.18;131225;1254;107281;-76
2023/04/15 15:41:21;;;;;;;6.50;4.70;;;;;;;14.47;66.27;99517.69;131255;1248;107444;-76
2023/04/15 15:44:26;;;;;;;8.10;5.10;;;;;;;14.37;65.83;99518.45;131290;1248;107566;-75
2023/04/15 15:47:32;;;;;;;6.70;3.60;;;;;;;14.26;66.26;99517.30;131187;1253;107533;-76
2023/04/15 15:50:37;;;;;;;14.10;9.20;;;;;;;14.19;66.21;99518.40;131434;1252;107438;-76
2023/04/15 15:53:43;;;;;;;12.00;7.70;;;;;;;14.12;66.18;99521.27;131254;1253;107607;-76
2023/04/15 15:56:49;;;;;;;12.00;7.60;;;;;;;14.09;66.11;99526.80;131177;1253;107583;-77
2023/04/15 15:59:54;;;;;;;48.90;22.80;;;;;;;14.10;66.02;99526.27;131259;1255;107467;-76
2023/04/15 16:03:00;;;;;;;21.30;10.80;;;;;;;14.14;66.28;99524.98;131294;1253;107440;-75
2023/04/15 16:06:06;;;;;;;12.30;6.50;;;;;;;14.16;66.34;99521.35;131194;1248;107235;-76
2023/04/15 16:09:12;;;;;;;8.80;5.10;;;;;;;14.17;66.12;99520.66;132491;1248;109289;-78
2023/04/15 16:12:17;;;;;;;34.60;17.00;;;;;;;14.13;66.12;99525.59;132758;1249;107573;-76
2023/04/15 16:15:25;;;;;;;13.50;6.80;;;;;;;14.09;66.03;99526.74;131109;1253;107352;-77
2023/04/15 16:18:30;;;;;;;10.90;5.30;;;;;;;14.03;65.99;99536.03;131383;1253;107442;-76
2023/04/15 16:21:36;;;;;;;19.80;8.90;;;;;;;13.96;65.91;99540.34;131459;1253;107422;-75
2023/04/15 16:24:41;;;;;;;8.80;4.60;;;;;;;13.87;66.01;99546.23;131505;1253;107450;-76
2023/04/15 16:27:46;;;;;;;8.00;5.60;;;;;;;13.79;66.10;99551.52;131284;1253;107523;-76
2023/04/15 16:30:52;;;;;;;13.40;9.50;;;;;;;13.69;66.33;99552.75;131373;1253;107600;-76
2023/04/15 16:33:58;;;;;;;9.90;6.30;;;;;;;13.61;66.45;99555.58;131454;1253;105935;-75
2023/04/15 16:37:03;;;;;;;10.00;6.60;;;;;;;13.53;66.57;99555.10;131505;1252;107410;-76
2023/04/15 16:40:11;;;;;;;7.70;5.00;;;;;;;13.46;66.47;99557.45;131403;1253;107621;-75
2023/04/15 16:43:17;;;;;;;6.50;5.20;;;;;;;13.34;66.73;99564.77;131549;1251;106539;-75
2023/04/15 16:46:22;;;;;;;7.70;5.60;;;;;;;13.23;66.68;99569.02;131759;1251;109288;-74
2023/04/15 16:49:27;;;;;;;6.00;4.70;;;;;;;13.14;66.76;99569.40;131433;1253;106864;-76
2023/04/15 16:52:34;;;;;;;5.80;4.20;;;;;;;13.08;66.86;99577.19;131412;1254;107342;-74
2023/04/15 16:55:40;;;;;;;6.70;4.40;;;;;;;13.02;67.07;99576.58;131340;1253;107954;-75